createdAt,value
2018-02-20T00:00:25.498Z,26.95
2018-02-20T00:02:53.806Z,29.00
2018-02-20T00:05:22.226Z,29.77
2018-02-20T00:07:50.655Z,26.85
2018-02-20T00:10:18.986Z,29.73
2018-02-20T00:12:47.355Z,29.70
2018-02-20T00:15:15.697Z,27.80
2018-02-20T00:17:44.022Z,27.58
2018-02-20T00:20:12.386Z,29.37
2018-02-20T00:22:40.714Z,27.65
2018-02-20T00:25:09.064Z,27.45
2018-02-20T00:27:37.391Z,27.65
2018-02-20T00:30:05.738Z,27.05
2018-02-20T00:32:34.061Z,28.05
2018-02-20T00:35:02.442Z,27.08
2018-02-20T00:37:30.825Z,27.25
2018-02-20T00:39:59.198Z,26.75
2018-02-20T00:42:27.595Z,26.95
2018-02-20T00:44:55.954Z,27.98
2018-02-20T00:47:24.334Z,28.23
2018-02-20T00:49:52.711Z,27.42
2018-02-20T00:52:21.085Z,26.30
2018-02-20T00:54:49.434Z,25.83
2018-02-20T00:57:17.846Z,26.90
2018-02-20T00:59:46.193Z,26.27
2018-02-20T01:02:14.601Z,27.35
2018-02-20T01:04:42.974Z,29.30
2018-02-20T01:07:11.298Z,28.55
2018-02-20T01:09:39.726Z,30.42
2018-02-20T01:12:08.102Z,29.50
2018-02-20T01:14:36.446Z,28.10
2018-02-20T01:17:04.860Z,28.55
2018-02-20T01:19:33.205Z,30.40
2018-02-20T01:22:01.530Z,27.80
2018-02-20T01:24:29.874Z,29.52
2018-02-20T01:26:58.198Z,26.92
2018-02-20T01:29:26.642Z,28.92
2018-02-20T01:31:54.970Z,29.37
2018-02-20T01:34:23.393Z,25.45
2018-02-20T01:36:51.722Z,25.73
2018-02-20T01:39:20.153Z,25.37
2018-02-20T01:41:48.526Z,26.45
2018-02-20T01:44:16.906Z,26.62
2018-02-20T01:46:45.281Z,26.92
2018-02-20T01:49:13.634Z,25.62
2018-02-20T01:51:41.962Z,26.70
2018-02-20T01:54:10.305Z,26.23
2018-02-20T01:56:38.690Z,25.92
2018-02-20T01:59:07.066Z,26.27
2018-02-20T02:01:35.418Z,26.90
2018-02-20T02:04:03.822Z,27.15
2018-02-20T02:06:32.198Z,26.92
2018-02-20T02:09:00.521Z,26.08
2018-02-20T02:11:28.955Z,28.20
2018-02-20T02:13:57.353Z,28.00
2018-02-20T02:16:25.706Z,28.60
2018-02-20T02:18:54.038Z,29.20
2018-02-20T02:21:22.466Z,28.70
2018-02-20T02:23:50.863Z,27.73
2018-02-20T02:26:19.218Z,30.05
2018-02-20T02:28:47.598Z,28.17
2018-02-20T02:31:15.958Z,28.70
2018-02-20T02:33:44.351Z,29.30
2018-02-20T02:36:12.694Z,31.15
2018-02-20T02:38:41.014Z,29.33
2018-02-20T02:41:09.383Z,29.40
2018-02-20T02:43:37.754Z,30.42
2018-02-20T02:46:06.134Z,27.45
2018-02-20T02:48:34.511Z,28.35
2018-02-20T02:51:02.857Z,28.52
2018-02-20T02:53:31.187Z,28.70
2018-02-20T02:55:59.529Z,26.40
2018-02-20T02:58:27.914Z,28.73
2018-02-20T03:00:56.493Z,26.70
2018-02-20T03:03:24.776Z,27.83
2018-02-20T03:05:53.118Z,27.45
2018-02-20T03:08:21.442Z,26.17
2018-02-20T03:10:49.802Z,27.25
2018-02-20T03:13:18.178Z,26.80
2018-02-20T03:15:46.522Z,26.73
2018-02-20T03:18:14.846Z,27.35
2018-02-20T03:20:43.210Z,25.73
2018-02-20T03:23:11.534Z,27.27
2018-02-20T03:25:39.966Z,27.08
2018-02-20T03:28:08.303Z,25.75
2018-02-20T03:30:36.719Z,27.25
2018-02-20T03:33:05.041Z,26.77
2018-02-20T03:35:33.387Z,26.35
2018-02-20T03:38:01.803Z,26.87
2018-02-20T03:40:30.131Z,27.15
2018-02-20T03:42:58.462Z,28.42
2018-02-20T03:45:26.809Z,29.23
2018-02-20T03:47:55.154Z,28.27
2018-02-20T03:50:23.506Z,30.05
2018-02-20T03:52:51.826Z,29.27
2018-02-20T03:55:20.151Z,27.15
2018-02-20T03:57:48.557Z,29.23
2018-02-20T04:00:16.938Z,27.73
2018-02-20T04:02:45.314Z,28.25
2018-02-20T04:05:13.694Z,28.50
2018-02-20T04:07:42.040Z,29.08
2018-02-20T04:10:10.437Z,29.00
2018-02-20T04:12:38.827Z,26.80
2018-02-20T04:15:07.156Z,27.67
2018-02-20T04:17:35.508Z,28.98
2018-02-20T04:20:03.837Z,28.23
2018-02-20T04:22:32.230Z,27.15
2018-02-20T04:25:00.550Z,26.33
2018-02-20T04:27:28.986Z,25.62
2018-02-20T04:29:57.362Z,27.75
2018-02-20T04:32:25.705Z,28.30
2018-02-20T04:34:54.138Z,26.98
2018-02-20T04:37:22.598Z,27.27
2018-02-20T04:39:50.981Z,27.33
2018-02-20T04:42:19.326Z,27.70
2018-02-20T04:44:47.662Z,28.42
2018-02-20T04:47:16.110Z,29.73
2018-02-20T04:49:44.446Z,30.02
2018-02-20T04:52:12.857Z,28.52
2018-02-20T04:54:41.241Z,29.40
2018-02-20T04:57:09.590Z,29.23
2018-02-20T04:59:38.003Z,29.60
2018-02-20T05:02:06.360Z,29.58
2018-02-20T05:04:34.687Z,28.98
2018-02-20T05:07:03.126Z,30.08
2018-02-20T05:09:31.510Z,30.50
2018-02-20T05:11:59.853Z,35.47
2018-02-20T05:14:28.253Z,36.63
2018-02-20T05:16:56.637Z,35.22
2018-02-20T05:19:25.010Z,28.73
2018-02-20T05:21:53.390Z,29.58
2018-02-20T05:24:21.726Z,33.83
2018-02-20T05:26:50.141Z,34.75
2018-02-20T05:29:18.473Z,31.58
2018-02-20T05:31:46.830Z,37.58
2018-02-20T05:34:15.169Z,36.70
2018-02-20T05:36:43.522Z,38.67
2018-02-20T05:39:11.854Z,39.53
2018-02-20T05:41:40.305Z,40.53
2018-02-20T05:44:08.682Z,37.33
2018-02-20T05:46:37.986Z,37.50
2018-02-20T05:49:06.322Z,34.90
2018-02-20T05:51:34.673Z,31.97
2018-02-20T05:54:03.114Z,32.40
2018-02-20T05:56:31.500Z,31.83
2018-02-20T05:58:59.848Z,31.27
2018-02-20T06:01:28.211Z,29.42
2018-02-20T06:03:56.623Z,32.97
2018-02-20T06:06:25.004Z,31.60
2018-02-20T06:08:53.378Z,32.20
2018-02-20T06:11:21.719Z,31.00
2018-02-20T06:13:50.079Z,30.80
2018-02-20T06:16:18.403Z,28.90
2018-02-20T06:18:46.762Z,28.90
2018-02-20T06:21:15.163Z,30.33
2018-02-20T06:23:43.514Z,29.10
2018-02-20T06:26:12.802Z,28.87
2018-02-20T06:28:41.153Z,28.53
2018-02-20T06:31:09.520Z,39.20
2018-02-20T06:33:38.075Z,29.23
2018-02-20T06:36:07.346Z,28.97
2018-02-20T06:38:35.854Z,29.40
2018-02-20T06:41:04.186Z,32.58
2018-02-20T06:43:32.621Z,31.90
2018-02-20T06:46:01.869Z,30.20
2018-02-20T06:48:30.213Z,31.08
2018-02-20T06:50:58.542Z,30.37
2018-02-20T06:53:26.898Z,27.10
2018-02-20T06:55:55.221Z,27.60
2018-02-20T06:58:23.579Z,29.07
2018-02-20T07:00:51.918Z,28.90
2018-02-20T07:03:20.279Z,27.77
2018-02-20T07:05:48.606Z,31.20
2018-02-20T07:08:17.750Z,32.00
2018-02-20T07:10:46.078Z,28.57
2018-02-20T07:13:14.438Z,30.90
2018-02-20T07:15:42.774Z,29.10
2018-02-20T07:18:11.125Z,30.77
2018-02-20T07:20:39.457Z,30.57
2018-02-20T07:23:07.820Z,32.30
2018-02-20T07:25:36.155Z,35.53
2018-02-20T07:28:04.511Z,34.60
2018-02-20T07:30:32.852Z,34.50
2018-02-20T07:33:01.201Z,33.53
2018-02-20T07:35:29.537Z,33.60
2018-02-20T07:37:57.894Z,33.30
2018-02-20T07:40:26.228Z,31.80
2018-02-20T07:42:54.578Z,31.15
2018-02-20T07:45:22.910Z,34.43
2018-02-20T07:47:51.270Z,33.85
2018-02-20T07:50:19.610Z,33.07
2018-02-20T07:52:47.962Z,34.23
2018-02-20T07:55:16.298Z,33.40
2018-02-20T07:57:44.650Z,34.37
2018-02-20T08:00:12.990Z,31.37
2018-02-20T08:02:41.329Z,32.80
2018-02-20T08:05:09.694Z,30.70
2018-02-20T08:07:38.030Z,32.17
2018-02-20T08:10:06.958Z,34.37
2018-02-20T08:12:35.310Z,35.43
2018-02-20T08:15:03.669Z,33.20
2018-02-20T08:17:32.001Z,33.85
2018-02-20T08:20:00.362Z,32.60
2018-02-20T08:22:28.693Z,34.13
2018-02-20T08:24:57.061Z,32.65
2018-02-20T08:27:25.437Z,35.97
2018-02-20T08:29:53.778Z,36.70
2018-02-20T08:32:22.131Z,34.00
2018-02-20T08:34:50.483Z,37.70
2018-02-20T08:37:18.841Z,34.87
2018-02-20T08:39:47.197Z,36.27
2018-02-20T08:42:15.534Z,35.97
2018-02-20T08:44:43.881Z,35.78
2018-02-20T08:47:12.211Z,33.10
2018-02-20T08:49:41.454Z,34.00
2018-02-20T08:52:09.781Z,35.97
2018-02-20T08:54:38.131Z,34.17
2018-02-20T08:57:06.461Z,34.53
2018-02-20T08:59:34.822Z,36.93
2018-02-20T09:02:03.154Z,33.87
2018-02-20T09:04:31.507Z,33.40
2018-02-20T09:06:59.829Z,35.10
2018-02-20T09:09:28.182Z,34.23
2018-02-20T09:11:56.511Z,35.63
2018-02-20T09:14:24.854Z,32.87
2018-02-20T09:16:53.186Z,37.20
2018-02-20T09:19:21.538Z,33.03
2018-02-20T09:21:49.866Z,34.20
2018-02-20T09:24:18.215Z,37.63
2018-02-20T09:26:46.543Z,31.70
2018-02-20T09:29:15.790Z,32.97
2018-02-20T09:31:44.136Z,33.37
2018-02-20T09:34:12.469Z,34.10
2018-02-20T09:36:40.828Z,30.80
2018-02-20T09:39:09.145Z,28.97
2018-02-20T09:41:37.470Z,29.17
2018-02-20T09:44:05.817Z,29.17
2018-02-20T09:46:34.152Z,31.90
2018-02-20T09:49:03.426Z,30.45
2018-02-20T09:51:31.759Z,32.57
2018-02-20T09:54:00.103Z,30.63
2018-02-20T09:56:28.443Z,30.13
2018-02-20T09:58:56.786Z,30.98
2018-02-20T10:01:25.110Z,32.83
2018-02-20T10:03:53.470Z,30.40
2018-02-20T10:06:21.798Z,29.50
2018-02-20T10:08:50.947Z,30.17
2018-02-20T10:11:19.290Z,28.70
2018-02-20T10:13:47.623Z,26.50
2018-02-20T10:16:15.970Z,28.33
2018-02-20T10:18:44.298Z,27.90
2018-02-20T10:21:12.657Z,28.75
2018-02-20T10:23:40.981Z,27.27
2018-02-20T10:26:09.336Z,27.23
2018-02-20T10:28:37.662Z,27.90
2018-02-20T10:31:06.018Z,29.30
2018-02-20T10:33:34.337Z,28.53
2018-02-20T10:36:02.695Z,26.70
2018-02-20T10:38:31.022Z,28.57
2018-02-20T10:40:59.446Z,24.87
2018-02-20T10:43:27.778Z,26.50
2018-02-20T10:45:56.139Z,26.10
2018-02-20T10:48:25.300Z,27.30
2018-02-20T10:50:53.642Z,25.20
2018-02-20T10:53:21.977Z,26.63
2018-02-20T10:55:51.402Z,24.03
2018-02-20T10:58:19.746Z,24.70
2018-02-20T11:00:48.121Z,25.70
2018-02-20T11:03:16.455Z,24.40
2018-02-20T11:05:44.850Z,24.35
2018-02-20T11:08:13.186Z,24.10
2018-02-20T11:10:41.545Z,27.30
2018-02-20T11:13:09.878Z,23.80
2018-02-20T11:15:39.067Z,25.90
2018-02-20T11:18:07.395Z,25.27
2018-02-20T11:20:35.746Z,22.67
2018-02-20T11:23:04.070Z,25.30
2018-02-20T11:25:32.509Z,24.87
2018-02-20T11:28:00.829Z,23.00
2018-02-20T11:30:29.183Z,26.43
2018-02-20T11:32:57.510Z,25.80
2018-02-20T11:35:25.874Z,25.00
2018-02-20T11:37:54.207Z,25.70
2018-02-20T11:40:22.554Z,27.27
2018-02-20T11:42:50.882Z,25.33
2018-02-20T11:45:19.234Z,26.60
2018-02-20T11:47:47.557Z,26.23
2018-02-20T11:50:15.906Z,27.30
2018-02-20T11:52:44.240Z,27.23
2018-02-20T11:55:12.590Z,27.07
2018-02-20T11:57:40.917Z,26.87
2018-02-20T12:00:09.275Z,26.37
2018-02-20T12:02:37.606Z,26.00
2018-02-20T12:05:05.954Z,26.67
2018-02-20T12:07:35.094Z,26.50
2018-02-20T12:10:03.447Z,25.50
2018-02-20T12:12:31.774Z,26.00
2018-02-20T12:15:00.099Z,28.60
2018-02-20T12:17:28.514Z,26.57
2018-02-20T12:19:56.830Z,24.65
2018-02-20T12:22:25.175Z,26.80
2018-02-20T12:24:53.507Z,26.07
2018-02-20T12:27:22.026Z,24.98
2018-02-20T12:29:50.362Z,26.17
2018-02-20T12:32:18.708Z,27.67
2018-02-20T12:34:47.029Z,26.90
2018-02-20T12:37:15.386Z,23.77
2018-02-20T12:39:43.730Z,24.17
2018-02-20T12:42:12.082Z,25.20
2018-02-20T12:44:40.407Z,23.70
2018-02-20T12:47:09.762Z,24.37
2018-02-20T12:49:38.085Z,24.87
2018-02-20T12:52:06.438Z,23.00
2018-02-20T12:54:34.769Z,24.00
2018-02-20T12:57:03.114Z,25.77
2018-02-20T12:59:31.439Z,30.47
2018-02-20T13:01:59.792Z,29.37
2018-02-20T13:04:28.123Z,45.60
2018-02-20T13:06:56.482Z,26.33
2018-02-20T13:09:24.814Z,28.43
2018-02-20T13:11:53.162Z,27.50
2018-02-20T13:14:21.498Z,29.77
2018-02-20T13:16:49.854Z,27.08
2018-02-20T13:19:18.178Z,30.03
2018-02-20T13:21:46.534Z,29.67
2018-02-20T13:24:14.862Z,32.93
2018-02-20T13:26:44.111Z,33.22
2018-02-20T13:29:12.434Z,36.37
2018-02-20T13:31:40.786Z,34.27
2018-02-20T13:34:09.126Z,33.63
2018-02-20T13:36:38.463Z,31.90
2018-02-20T13:39:06.792Z,31.53
2018-02-20T13:41:35.136Z,33.97
2018-02-20T13:44:03.475Z,32.25
2018-02-20T13:46:31.822Z,33.77
2018-02-20T13:49:00.150Z,35.40
2018-02-20T13:51:28.503Z,34.77
2018-02-20T13:53:56.826Z,36.70
2018-02-20T13:56:25.178Z,36.65
2018-02-20T13:58:53.502Z,33.17
2018-02-20T14:01:21.854Z,35.20
2018-02-20T14:03:50.270Z,34.20
2018-02-20T14:06:18.603Z,32.67
2018-02-20T14:08:46.926Z,33.40
2018-02-20T14:11:15.278Z,31.17
2018-02-20T14:13:43.610Z,32.53
2018-02-20T14:16:11.964Z,33.50
2018-02-20T14:18:40.333Z,34.10
2018-02-20T14:21:08.794Z,32.67
2018-02-20T14:23:37.142Z,40.27
2018-02-20T14:26:06.406Z,55.57
2018-02-20T14:28:34.953Z,102.07
2018-02-20T14:31:03.311Z,109.87
2018-02-20T14:33:31.873Z,37.37
2018-02-20T14:36:01.158Z,35.08
2018-02-20T14:38:29.511Z,32.03
2018-02-20T14:40:57.846Z,35.00
2018-02-20T14:43:26.194Z,33.22
2018-02-20T14:45:55.410Z,36.70
2018-02-20T14:48:24.893Z,36.53
2018-02-20T14:50:53.205Z,33.75
2018-02-20T14:53:21.563Z,36.37
2018-02-20T14:55:54.825Z,36.10
2018-02-20T14:58:25.559Z,34.03
2018-02-20T15:00:53.869Z,35.60
2018-02-20T15:03:22.433Z,34.63
2018-02-20T15:05:51.082Z,34.97
2018-02-20T15:08:19.432Z,33.67
2018-02-20T15:10:47.762Z,35.90
2018-02-20T15:13:16.110Z,35.40
2018-02-20T15:15:44.434Z,34.27
2018-02-20T15:18:12.806Z,36.05
2018-02-20T15:20:41.137Z,33.17
2018-02-20T15:23:09.747Z,33.83
2018-02-20T15:25:38.108Z,32.67
2018-02-20T15:28:08.671Z,31.87
2018-02-20T15:30:43.647Z,32.72
2018-02-20T15:33:11.954Z,32.93
2018-02-20T15:35:42.915Z,32.70
2018-02-20T15:38:11.285Z,36.57
2018-02-20T15:40:39.615Z,31.83
2018-02-20T15:43:07.979Z,31.97
2018-02-20T15:45:36.306Z,33.13
2018-02-20T15:48:05.059Z,34.42
2018-02-20T15:50:33.478Z,33.00
2018-02-20T15:53:01.860Z,34.37
2018-02-20T15:55:30.234Z,30.60
2018-02-20T15:57:58.880Z,31.83
2018-02-20T16:00:27.311Z,33.03
2018-02-20T16:02:55.834Z,35.83
2018-02-20T16:05:24.175Z,37.87
2018-02-20T16:07:52.531Z,33.50
2018-02-20T16:10:20.854Z,33.80
2018-02-20T16:12:49.204Z,34.53
2018-02-20T16:15:17.537Z,32.63
2018-02-20T16:17:45.942Z,34.17
2018-02-20T16:20:14.370Z,32.97
2018-02-20T16:22:42.797Z,32.90
2018-02-20T16:25:11.125Z,32.87
2018-02-20T16:27:39.555Z,32.03
2018-02-20T16:30:07.922Z,32.37
2018-02-20T16:32:36.279Z,32.70
2018-02-20T16:35:04.680Z,32.40
2018-02-20T16:37:33.014Z,33.10
2018-02-20T16:40:01.384Z,32.17
2018-02-20T16:42:29.711Z,32.67
2018-02-20T16:44:58.059Z,43.60
2018-02-20T16:47:26.482Z,33.50
2018-02-20T16:49:54.835Z,33.78
2018-02-20T16:52:23.230Z,33.40
2018-02-20T16:54:51.823Z,31.70
2018-02-20T16:57:20.176Z,31.17
2018-02-20T16:59:48.542Z,32.88
2018-02-20T17:02:16.934Z,33.40
2018-02-20T17:04:45.309Z,33.57
2018-02-20T17:07:13.689Z,32.77
2018-02-20T17:09:42.064Z,31.37
2018-02-20T17:12:10.407Z,31.93
2018-02-20T17:14:38.838Z,31.52
2018-02-20T17:17:07.186Z,31.77
2018-02-20T17:19:35.578Z,34.57
2018-02-20T17:22:03.910Z,35.73
2018-02-20T17:24:32.454Z,37.43
2018-02-20T17:27:00.915Z,36.53
2018-02-20T17:29:29.432Z,37.70
2018-02-20T17:31:57.870Z,38.97
2018-02-20T17:34:26.245Z,40.10
2018-02-20T17:36:54.584Z,48.87
2018-02-20T17:39:22.933Z,45.10
2018-02-20T17:41:51.385Z,42.17
2018-02-20T17:44:19.743Z,43.27
2018-02-20T17:46:48.138Z,38.47
2018-02-20T17:49:16.499Z,41.37
2018-02-20T17:51:44.828Z,39.85
2018-02-20T17:54:13.258Z,40.07
2018-02-20T17:56:41.667Z,39.70
2018-02-20T17:59:10.035Z,38.60
2018-02-20T18:01:38.353Z,41.27
2018-02-20T18:04:06.774Z,37.60
2018-02-20T18:06:35.160Z,39.10
2018-02-20T18:09:03.514Z,38.30
2018-02-20T18:11:31.836Z,38.87
2018-02-20T18:14:00.387Z,41.23
2018-02-20T18:16:29.651Z,41.73
2018-02-20T18:18:58.070Z,41.60
2018-02-20T18:21:26.406Z,41.37
2018-02-20T18:23:54.758Z,45.67
2018-02-20T18:26:24.119Z,43.03
2018-02-20T18:28:52.475Z,42.20
2018-02-20T18:31:20.816Z,41.15
2018-02-20T18:33:49.242Z,40.60
2018-02-20T18:36:17.632Z,44.10
2018-02-20T18:38:45.991Z,44.60
2018-02-20T18:41:14.317Z,40.08
2018-02-20T18:43:42.754Z,39.97
2018-02-20T18:46:11.114Z,42.90
2018-02-20T18:48:39.598Z,43.45
2018-02-20T18:51:08.027Z,44.85
2018-02-20T18:53:36.370Z,44.00
2018-02-20T18:56:06.623Z,46.28
2018-02-20T18:58:38.579Z,42.47
2018-02-20T19:01:10.604Z,41.35
2018-02-20T19:03:38.925Z,41.83
2018-02-20T19:06:08.266Z,42.17
2018-02-20T19:08:36.658Z,43.07
2018-02-20T19:11:05.045Z,41.72
2018-02-20T19:13:33.383Z,43.28
2018-02-20T19:16:02.716Z,42.03
2018-02-20T19:18:31.047Z,43.30
2018-02-20T19:20:59.409Z,42.07
2018-02-20T19:23:27.734Z,41.03
2018-02-20T19:25:57.033Z,40.20
2018-02-20T19:28:25.369Z,41.43
2018-02-20T19:30:53.806Z,49.43
2018-02-20T19:33:22.182Z,49.10
2018-02-20T19:35:51.162Z,48.00
2018-02-20T19:38:19.503Z,56.28
2018-02-20T19:40:47.930Z,46.37
2018-02-20T19:43:16.962Z,46.00
2018-02-20T19:45:45.315Z,45.77
2018-02-20T19:48:13.674Z,46.53
2018-02-20T19:50:42.052Z,44.90
2018-02-20T19:53:22.162Z,46.23
2018-02-20T19:55:53.875Z,45.93
2018-02-20T19:58:22.239Z,45.20
2018-02-20T20:00:50.594Z,45.47
2018-02-20T20:03:18.971Z,44.47
2018-02-20T20:05:47.371Z,41.05
2018-02-20T20:08:15.702Z,46.37
2018-02-20T20:10:44.295Z,42.92
2018-02-20T20:13:12.626Z,43.13
2018-02-20T20:15:41.083Z,44.40
2018-02-20T20:18:09.436Z,45.10
2018-02-20T20:20:37.847Z,44.73
2018-02-20T20:23:06.213Z,47.55
2018-02-20T20:25:34.590Z,47.80
2018-02-20T20:28:02.953Z,49.43
2018-02-20T20:30:31.966Z,47.15
2018-02-20T20:33:00.307Z,45.57
2018-02-20T20:35:28.717Z,48.67
2018-02-20T20:37:57.054Z,49.28
2018-02-20T20:40:25.414Z,46.92
2018-02-20T20:42:53.846Z,47.40
2018-02-20T20:45:22.207Z,44.85
2018-02-20T20:47:50.605Z,45.50
2018-02-20T20:50:19.771Z,48.25
2018-02-20T20:52:48.106Z,45.87
2018-02-20T20:55:16.483Z,45.73
2018-02-20T20:57:44.826Z,43.72
2018-02-20T21:00:13.490Z,47.27
2018-02-20T21:02:41.825Z,45.50
2018-02-20T21:05:10.269Z,43.57
2018-02-20T21:07:38.602Z,44.45
2018-02-20T21:10:07.510Z,46.13
2018-02-20T21:12:35.914Z,44.03
2018-02-20T21:15:04.341Z,41.70
2018-02-20T21:17:32.770Z,43.67
2018-02-20T21:20:01.147Z,41.45
2018-02-20T21:22:29.521Z,43.67
2018-02-20T21:24:58.618Z,42.57
2018-02-20T21:27:26.978Z,42.27
2018-02-20T21:29:55.320Z,41.47
2018-02-20T21:32:23.758Z,44.92
2018-02-20T21:34:52.082Z,40.67
2018-02-20T21:37:20.454Z,46.50
2018-02-20T21:39:48.874Z,42.80
2018-02-20T21:42:17.266Z,42.50
2018-02-20T21:44:45.643Z,44.20
2018-02-20T21:47:13.999Z,43.90
2018-02-20T21:49:42.334Z,42.33
2018-02-20T21:52:11.379Z,44.33
2018-02-20T21:54:39.714Z,44.47
2018-02-20T21:57:08.078Z,43.90
2018-02-20T21:59:36.410Z,42.00
2018-02-20T22:02:04.771Z,41.87
2018-02-20T22:04:33.110Z,43.45
2018-02-20T22:07:01.474Z,41.77
2018-02-20T22:09:29.854Z,42.97
2018-02-20T22:11:58.341Z,42.20
2018-02-20T22:14:26.682Z,46.50
2018-02-20T22:16:55.030Z,44.80
2018-02-20T22:19:23.361Z,46.40
2018-02-20T22:21:51.802Z,44.72
2018-02-20T22:24:20.215Z,47.27
2018-02-20T22:26:48.662Z,46.92
2018-02-20T22:29:16.994Z,46.05
2018-02-20T22:31:45.428Z,44.97
2018-02-20T22:34:13.794Z,45.90
2018-02-20T22:36:42.166Z,46.53
2018-02-20T22:39:10.494Z,49.63
2018-02-20T22:41:38.841Z,45.22
2018-02-20T22:44:07.178Z,44.92
2018-02-20T22:46:35.538Z,47.22
2018-02-20T22:49:03.957Z,43.72
2018-02-20T22:51:32.331Z,46.50
2018-02-20T22:54:00.658Z,45.55
2018-02-20T22:56:29.030Z,45.78
2018-02-20T22:58:57.385Z,46.85
2018-02-20T23:01:25.730Z,48.22
2018-02-20T23:03:54.072Z,46.92
2018-02-20T23:06:22.439Z,45.67
2018-02-20T23:08:50.809Z,43.28
2018-02-20T23:14:22.951Z,41.50
2018-02-20T23:16:51.302Z,42.28
2018-02-20T23:19:19.684Z,41.33
2018-02-20T23:21:48.062Z,41.65
2018-02-20T23:24:16.466Z,44.95
2018-02-20T23:26:44.850Z,43.92
2018-02-20T23:29:13.217Z,47.08
2018-02-20T23:31:41.570Z,45.95
2018-02-20T23:34:09.971Z,44.97
2018-02-20T23:36:38.343Z,42.28
2018-02-20T23:39:06.729Z,43.47
2018-02-20T23:41:35.108Z,42.08
2018-02-20T23:44:03.437Z,40.65
2018-02-20T23:46:31.762Z,40.30
2018-02-20T23:49:00.138Z,41.63
2018-02-20T23:51:34.106Z,40.80
2018-02-20T23:54:02.461Z,40.78
2018-02-20T23:56:30.894Z,40.67
2018-02-20T23:58:59.278Z,40.78
